sensor_id;sensor_type;location;lat;lon;timestamp;noise_LAeq;noise_LA_min;noise_LA_max;noise_LA01;noise_LA95
72686;Laerm;61365;52.162;4.500;2023-03-08T00:02:08;46.96;37.36;58.08;;
72686;Laerm;61365;52.162;4.500;2023-03-08T00:04:34;47.02;37.87;57.31;;
72686;Laerm;61365;52.162;4.500;2023-03-08T00:07:01;47.01;38.02;57.44;;
72686;Laerm;61365;52.162;4.500;2023-03-08T00:09:27;46.93;37.55;56.82;;
72686;Laerm;61365;52.162;4.500;2023-03-08T00:11:54;46.77;39.05;60.10;;
72686;Laerm;61365;52.162;4.500;2023-03-08T00:14:20;46.54;39.14;58.71;;
72686;Laerm;61365;52.162;4.500;2023-03-08T00:16:52;46.66;39.57;60.08;;
72686;Laerm;61365;52.162;4.500;2023-03-08T00:19:19;46.56;39.17;58.98;;
72686;Laerm;61365;52.162;4.500;2023-03-08T00:21:45;46.67;39.21;58.94;;
72686;Laerm;61365;52.162;4.500;2023-03-08T00:24:11;46.65;39.67;59.17;;
72686;Laerm;61365;52.162;4.500;2023-03-08T00:26:42;46.54;38.83;59.99;;
72686;Laerm;61365;52.162;4.500;2023-03-08T00:29:08;46.67;39.57;58.53;;
72686;Laerm;61365;52.162;4.500;2023-03-08T00:31:35;46.80;38.45;58.70;;
72686;Laerm;61365;52.162;4.500;2023-03-08T00:34:01;46.60;39.61;59.70;;
72686;Laerm;61365;52.162;4.500;2023-03-08T00:36:28;46.61;39.15;59.74;;
72686;Laerm;61365;52.162;4.500;2023-03-08T00:38:55;46.75;38.19;58.57;;
72686;Laerm;61365;52.162;4.500;2023-03-08T00:41:22;47.08;37.90;58.77;;
72686;Laerm;61365;52.162;4.500;2023-03-08T00:43:49;47.05;38.09;58.22;;
72686;Laerm;61365;52.162;4.500;2023-03-08T00:46:15;47.06;37.82;58.18;;
72686;Laerm;61365;52.162;4.500;2023-03-08T00:48:42;47.09;38.08;58.23;;
72686;Laerm;61365;52.162;4.500;2023-03-08T00:51:14;47.02;37.67;58.04;;
72686;Laerm;61365;52.162;4.500;2023-03-08T00:53:40;47.20;38.26;58.39;;
72686;Laerm;61365;52.162;4.500;2023-03-08T00:56:07;47.15;38.65;56.90;;
72686;Laerm;61365;52.162;4.500;2023-03-08T00:58:33;47.19;38.10;57.21;;
72686;Laerm;61365;52.162;4.500;2023-03-08T01:01:02;47.20;38.12;58.82;;
72686;Laerm;61365;52.162;4.500;2023-03-08T01:03:28;47.15;37.52;56.99;;
72686;Laerm;61365;52.162;4.500;2023-03-08T01:05:57;47.04;37.51;58.99;;
72686;Laerm;61365;52.162;4.500;2023-03-08T01:08:25;47.07;38.16;57.48;;
72686;Laerm;61365;52.162;4.500;2023-03-08T01:10:55;47.03;37.57;57.76;;
72686;Laerm;61365;52.162;4.500;2023-03-08T01:13:28;47.13;38.07;61.89;;
72686;Laerm;61365;52.162;4.500;2023-03-08T01:15:55;47.20;37.96;60.13;;
72686;Laerm;61365;52.162;4.500;2023-03-08T01:18:22;47.08;38.23;58.76;;
72686;Laerm;61365;52.162;4.500;2023-03-08T01:21:01;47.09;38.25;57.90;;
72686;Laerm;61365;52.162;4.500;2023-03-08T01:23:29;47.19;38.23;58.88;;
72686;Laerm;61365;52.162;4.500;2023-03-08T01:26:02;47.32;38.02;57.38;;
72686;Laerm;61365;52.162;4.500;2023-03-08T01:28:29;47.16;38.11;57.85;;
72686;Laerm;61365;52.162;4.500;2023-03-08T01:31:28;47.05;38.53;58.01;;
72686;Laerm;61365;52.162;4.500;2023-03-08T01:33:56;46.98;38.36;57.48;;
72686;Laerm;61365;52.162;4.500;2023-03-08T01:36:25;47.00;38.46;58.05;;
72686;Laerm;61365;52.162;4.500;2023-03-08T01:38:52;47.09;39.10;57.82;;
72686;Laerm;61365;52.162;4.500;2023-03-08T01:41:24;47.12;38.34;57.20;;
72686;Laerm;61365;52.162;4.500;2023-03-08T01:43:52;47.10;38.50;57.29;;
72686;Laerm;61365;52.162;4.500;2023-03-08T01:46:32;47.07;37.82;59.87;;
72686;Laerm;61365;52.162;4.500;2023-03-08T01:49:32;47.11;37.46;57.63;;
72686;Laerm;61365;52.162;4.500;2023-03-08T01:52:05;47.08;37.72;58.13;;
72686;Laerm;61365;52.162;4.500;2023-03-08T01:54:51;47.19;38.13;56.85;;
72686;Laerm;61365;52.162;4.500;2023-03-08T01:57:50;47.01;38.35;56.87;;
72686;Laerm;61365;52.162;4.500;2023-03-08T02:00:24;47.19;38.31;58.23;;
72686;Laerm;61365;52.162;4.500;2023-03-08T02:03:05;47.13;38.90;58.81;;
72686;Laerm;61365;52.162;4.500;2023-03-08T02:05:35;47.23;39.00;61.71;;
72686;Laerm;61365;52.162;4.500;2023-03-08T02:08:02;47.36;38.42;58.85;;
72686;Laerm;61365;52.162;4.500;2023-03-08T02:10:29;47.05;38.27;57.92;;
72686;Laerm;61365;52.162;4.500;2023-03-08T02:12:56;47.14;38.08;63.54;;
72686;Laerm;61365;52.162;4.500;2023-03-08T02:15:23;47.08;38.96;57.44;;
72686;Laerm;61365;52.162;4.500;2023-03-08T02:17:49;47.13;39.48;58.36;;
72686;Laerm;61365;52.162;4.500;2023-03-08T02:20:37;47.14;38.00;57.95;;
72686;Laerm;61365;52.162;4.500;2023-03-08T02:23:19;46.97;38.30;58.14;;
72686;Laerm;61365;52.162;4.500;2023-03-08T02:25:59;46.99;37.64;57.75;;
72686;Laerm;61365;52.162;4.500;2023-03-08T02:28:29;46.70;38.90;58.32;;
72686;Laerm;61365;52.162;4.500;2023-03-08T02:30:56;46.46;38.85;60.56;;
72686;Laerm;61365;52.162;4.500;2023-03-08T02:33:23;46.49;39.50;58.57;;
72686;Laerm;61365;52.162;4.500;2023-03-08T02:35:50;46.61;38.05;58.74;;
72686;Laerm;61365;52.162;4.500;2023-03-08T02:38:19;46.75;39.50;59.36;;
72686;Laerm;61365;52.162;4.500;2023-03-08T02:40:46;46.59;39.46;59.52;;
72686;Laerm;61365;52.162;4.500;2023-03-08T02:43:17;46.64;38.78;60.35;;
72686;Laerm;61365;52.162;4.500;2023-03-08T02:45:44;46.59;39.01;59.65;;
72686;Laerm;61365;52.162;4.500;2023-03-08T02:48:11;46.45;39.57;58.78;;
72686;Laerm;61365;52.162;4.500;2023-03-08T02:50:38;46.46;39.28;58.59;;
72686;Laerm;61365;52.162;4.500;2023-03-08T02:53:06;46.64;39.51;59.28;;
72686;Laerm;61365;52.162;4.500;2023-03-08T02:55:33;46.65;39.93;60.71;;
72686;Laerm;61365;52.162;4.500;2023-03-08T02:58:04;46.63;39.16;60.99;;
72686;Laerm;61365;52.162;4.500;2023-03-08T03:00:31;46.64;39.71;59.96;;
72686;Laerm;61365;52.162;4.500;2023-03-08T03:02:57;46.63;39.69;58.70;;
72686;Laerm;61365;52.162;4.500;2023-03-08T03:05:24;46.78;39.67;60.01;;
72686;Laerm;61365;52.162;4.500;2023-03-08T03:07:50;46.84;39.60;62.07;;
72686;Laerm;61365;52.162;4.500;2023-03-08T03:10:17;46.39;39.15;58.64;;
72686;Laerm;61365;52.162;4.500;2023-03-08T03:12:43;46.57;39.17;59.42;;
72686;Laerm;61365;52.162;4.500;2023-03-08T03:15:10;46.44;39.31;59.10;;
72686;Laerm;61365;52.162;4.500;2023-03-08T03:17:37;46.48;39.31;59.31;;
72686;Laerm;61365;52.162;4.500;2023-03-08T03:20:07;46.71;38.94;59.17;;
72686;Laerm;61365;52.162;4.500;2023-03-08T03:22:35;46.60;39.46;59.09;;
72686;Laerm;61365;52.162;4.500;2023-03-08T03:25:02;46.88;33.43;64.04;;
72686;Laerm;61365;52.162;4.500;2023-03-08T03:27:28;46.51;38.12;59.04;;
72686;Laerm;61365;52.162;4.500;2023-03-08T03:29:54;46.64;38.99;59.39;;
72686;Laerm;61365;52.162;4.500;2023-03-08T03:32:21;46.64;39.44;60.78;;
72686;Laerm;61365;52.162;4.500;2023-03-08T03:34:47;46.54;39.22;58.99;;
72686;Laerm;61365;52.162;4.500;2023-03-08T03:37:13;46.80;39.17;58.61;;
72686;Laerm;61365;52.162;4.500;2023-03-08T03:39:40;46.65;39.04;58.68;;
72686;Laerm;61365;52.162;4.500;2023-03-08T03:42:07;46.59;39.48;58.77;;
72686;Laerm;61365;52.162;4.500;2023-03-08T03:44:33;46.73;39.61;60.33;;
72686;Laerm;61365;52.162;4.500;2023-03-08T03:47:00;46.80;38.81;60.25;;
72686;Laerm;61365;52.162;4.500;2023-03-08T03:49:27;46.68;39.91;58.92;;
72686;Laerm;61365;52.162;4.500;2023-03-08T03:51:54;46.56;38.98;58.65;;
72686;Laerm;61365;52.162;4.500;2023-03-08T03:54:20;46.62;38.53;59.68;;
72686;Laerm;61365;52.162;4.500;2023-03-08T03:56:47;46.85;35.34;65.00;;
72686;Laerm;61365;52.162;4.500;2023-03-08T03:59:13;46.48;39.58;62.59;;
72686;Laerm;61365;52.162;4.500;2023-03-08T04:01:39;46.51;38.92;59.61;;
72686;Laerm;61365;52.162;4.500;2023-03-08T04:04:05;47.02;38.55;59.16;;
72686;Laerm;61365;52.162;4.500;2023-03-08T04:06:33;47.10;37.54;58.59;;
72686;Laerm;61365;52.162;4.500;2023-03-08T04:09:05;47.05;38.19;58.05;;
72686;Laerm;61365;52.162;4.500;2023-03-08T04:11:36;47.13;38.38;58.35;;
72686;Laerm;61365;52.162;4.500;2023-03-08T04:14:04;47.04;38.58;58.46;;
72686;Laerm;61365;52.162;4.500;2023-03-08T04:16:35;47.19;38.80;57.58;;
72686;Laerm;61365;52.162;4.500;2023-03-08T04:19:10;46.97;37.25;57.57;;
72686;Laerm;61365;52.162;4.500;2023-03-08T04:21:38;47.14;38.57;57.54;;
72686;Laerm;61365;52.162;4.500;2023-03-08T04:24:04;47.03;37.50;57.49;;
72686;Laerm;61365;52.162;4.500;2023-03-08T04:26:32;46.92;38.64;58.86;;
72686;Laerm;61365;52.162;4.500;2023-03-08T04:28:58;47.17;37.88;57.86;;
72686;Laerm;61365;52.162;4.500;2023-03-08T04:31:28;47.12;38.22;57.90;;
72686;Laerm;61365;52.162;4.500;2023-03-08T04:33:55;47.08;38.07;57.21;;
72686;Laerm;61365;52.162;4.500;2023-03-08T04:36:22;47.02;38.17;57.70;;
72686;Laerm;61365;52.162;4.500;2023-03-08T04:38:51;47.19;38.97;58.16;;
72686;Laerm;61365;52.162;4.500;2023-03-08T04:41:18;47.09;38.39;58.64;;
72686;Laerm;61365;52.162;4.500;2023-03-08T04:43:56;47.05;38.10;57.98;;
72686;Laerm;61365;52.162;4.500;2023-03-08T04:46:26;47.08;37.86;59.23;;
72686;Laerm;61365;52.162;4.500;2023-03-08T04:48:53;47.15;37.85;57.53;;
72686;Laerm;61365;52.162;4.500;2023-03-08T04:51:23;47.02;37.95;57.36;;
72686;Laerm;61365;52.162;4.500;2023-03-08T04:53:51;47.02;38.36;56.75;;
72686;Laerm;61365;52.162;4.500;2023-03-08T04:56:17;47.11;37.12;57.31;;
72686;Laerm;61365;52.162;4.500;2023-03-08T04:58:44;47.00;38.34;57.88;;
72686;Laerm;61365;52.162;4.500;2023-03-08T05:01:17;46.98;38.01;59.16;;
72686;Laerm;61365;52.162;4.500;2023-03-08T05:03:45;47.12;37.81;57.78;;
72686;Laerm;61365;52.162;4.500;2023-03-08T05:06:12;47.01;37.91;57.48;;
72686;Laerm;61365;52.162;4.500;2023-03-08T05:08:39;47.08;38.11;61.77;;
72686;Laerm;61365;52.162;4.500;2023-03-08T05:11:06;47.02;38.24;58.58;;
72686;Laerm;61365;52.162;4.500;2023-03-08T05:13:36;47.13;39.07;57.33;;
72686;Laerm;61365;52.162;4.500;2023-03-08T05:16:06;47.10;38.54;58.45;;
72686;Laerm;61365;52.162;4.500;2023-03-08T05:18:33;47.13;38.64;58.35;;
72686;Laerm;61365;52.162;4.500;2023-03-08T05:21:05;46.89;38.11;57.78;;
72686;Laerm;61365;52.162;4.500;2023-03-08T05:23:32;46.90;37.46;59.66;;
72686;Laerm;61365;52.162;4.500;2023-03-08T05:26:02;47.14;38.90;58.38;;
72686;Laerm;61365;52.162;4.500;2023-03-08T05:28:32;46.94;38.19;58.76;;
72686;Laerm;61365;52.162;4.500;2023-03-08T05:33:36;46.95;38.05;58.52;;
72686;Laerm;61365;52.162;4.500;2023-03-08T05:36:04;47.01;38.29;58.23;;
72686;Laerm;61365;52.162;4.500;2023-03-08T05:38:31;47.19;38.74;58.77;;
72686;Laerm;61365;52.162;4.500;2023-03-08T05:41:03;47.11;38.69;59.30;;
72686;Laerm;61365;52.162;4.500;2023-03-08T05:43:30;47.17;38.43;58.31;;
72686;Laerm;61365;52.162;4.500;2023-03-08T05:46:03;47.03;37.86;58.03;;
72686;Laerm;61365;52.162;4.500;2023-03-08T05:48:33;47.11;38.25;61.79;;
72686;Laerm;61365;52.162;4.500;2023-03-08T05:51:09;47.05;37.87;57.61;;
72686;Laerm;61365;52.162;4.500;2023-03-08T05:53:36;47.12;38.63;58.44;;
72686;Laerm;61365;52.162;4.500;2023-03-08T05:56:14;46.97;38.02;58.27;;
72686;Laerm;61365;52.162;4.500;2023-03-08T05:58:42;46.90;38.38;57.76;;
72686;Laerm;61365;52.162;4.500;2023-03-08T06:01:12;46.88;38.79;57.71;;
72686;Laerm;61365;52.162;4.500;2023-03-08T06:03:39;47.01;37.84;56.68;;
72686;Laerm;61365;52.162;4.500;2023-03-08T06:06:05;47.02;38.07;57.84;;
72686;Laerm;61365;52.162;4.500;2023-03-08T06:08:32;47.19;38.33;58.11;;
72686;Laerm;61365;52.162;4.500;2023-03-08T06:10:58;47.04;36.89;57.79;;
72686;Laerm;61365;52.162;4.500;2023-03-08T06:13:24;47.07;38.19;57.86;;
72686;Laerm;61365;52.162;4.500;2023-03-08T06:15:58;46.97;38.12;58.07;;
72686;Laerm;61365;52.162;4.500;2023-03-08T06:18:27;46.94;38.43;56.69;;
72686;Laerm;61365;52.162;4.500;2023-03-08T06:21:10;47.01;38.17;59.06;;
72686;Laerm;61365;52.162;4.500;2023-03-08T06:23:37;47.08;38.12;58.68;;
72686;Laerm;61365;52.162;4.500;2023-03-08T06:26:06;47.02;38.43;58.98;;
72686;Laerm;61365;52.162;4.500;2023-03-08T06:28:33;46.86;38.31;58.16;;
72686;Laerm;61365;52.162;4.500;2023-03-08T06:31:00;47.11;37.13;59.86;;
72686;Laerm;61365;52.162;4.500;2023-03-08T06:33:32;46.85;37.89;58.19;;
72686;Laerm;61365;52.162;4.500;2023-03-08T06:36:10;47.06;37.58;58.41;;
72686;Laerm;61365;52.162;4.500;2023-03-08T06:38:39;47.20;38.69;59.41;;
72686;Laerm;61365;52.162;4.500;2023-03-08T06:41:08;47.05;38.30;58.45;;
72686;Laerm;61365;52.162;4.500;2023-03-08T06:43:35;47.00;38.70;58.47;;
72686;Laerm;61365;52.162;4.500;2023-03-08T06:46:07;46.95;37.79;57.92;;
72686;Laerm;61365;52.162;4.500;2023-03-08T06:48:36;47.05;38.51;57.95;;
72686;Laerm;61365;52.162;4.500;2023-03-08T06:51:04;47.03;38.42;57.77;;
72686;Laerm;61365;52.162;4.500;2023-03-08T06:53:31;46.94;37.94;58.70;;
72686;Laerm;61365;52.162;4.500;2023-03-08T06:55:58;46.93;38.36;58.88;;
72686;Laerm;61365;52.162;4.500;2023-03-08T06:58:28;47.13;38.08;58.46;;
72686;Laerm;61365;52.162;4.500;2023-03-08T07:00:54;46.92;38.56;58.09;;
72686;Laerm;61365;52.162;4.500;2023-03-08T07:03:20;47.01;37.34;57.37;;
72686;Laerm;61365;52.162;4.500;2023-03-08T07:05:48;46.93;37.78;57.71;;
72686;Laerm;61365;52.162;4.500;2023-03-08T07:08:14;47.03;38.27;57.46;;
72686;Laerm;61365;52.162;4.500;2023-03-08T07:10:40;47.00;38.73;58.32;;
72686;Laerm;61365;52.162;4.500;2023-03-08T07:13:06;46.93;37.92;59.57;;
72686;Laerm;61365;52.162;4.500;2023-03-08T07:15:33;47.05;38.37;57.92;;
72686;Laerm;61365;52.162;4.500;2023-03-08T07:17:59;47.04;38.43;57.77;;
72686;Laerm;61365;52.162;4.500;2023-03-08T07:20:26;46.98;38.50;58.25;;
72686;Laerm;61365;52.162;4.500;2023-03-08T07:22:53;47.00;38.59;57.67;;
72686;Laerm;61365;52.162;4.500;2023-03-08T07:25:20;47.17;37.02;57.96;;
72686;Laerm;61365;52.162;4.500;2023-03-08T07:27:46;47.12;37.35;58.82;;
72686;Laerm;61365;52.162;4.500;2023-03-08T07:30:15;47.03;38.94;58.15;;
72686;Laerm;61365;52.162;4.500;2023-03-08T07:32:42;47.15;37.68;58.51;;
72686;Laerm;61365;52.162;4.500;2023-03-08T07:35:11;47.04;38.33;59.28;;
72686;Laerm;61365;52.162;4.500;2023-03-08T07:37:38;47.08;37.27;58.44;;
72686;Laerm;61365;52.162;4.500;2023-03-08T07:40:07;47.08;38.19;58.64;;
72686;Laerm;61365;52.162;4.500;2023-03-08T07:42:34;47.00;38.56;57.66;;
72686;Laerm;61365;52.162;4.500;2023-03-08T07:45:00;47.02;38.43;57.78;;
72686;Laerm;61365;52.162;4.500;2023-03-08T07:47:26;47.05;37.06;57.22;;
72686;Laerm;61365;52.162;4.500;2023-03-08T07:49:53;46.90;37.10;57.15;;
72686;Laerm;61365;52.162;4.500;2023-03-08T07:52:19;47.09;37.73;57.77;;
72686;Laerm;61365;52.162;4.500;2023-03-08T07:54:45;46.99;38.23;57.70;;
72686;Laerm;61365;52.162;4.500;2023-03-08T07:57:13;46.93;38.42;57.44;;
72686;Laerm;61365;52.162;4.500;2023-03-08T07:59:41;47.09;37.37;58.26;;
72686;Laerm;61365;52.162;4.500;2023-03-08T08:02:16;47.08;38.17;58.22;;
72686;Laerm;61365;52.162;4.500;2023-03-08T08:04:43;46.97;38.23;57.68;;
72686;Laerm;61365;52.162;4.500;2023-03-08T08:07:14;47.04;38.00;57.60;;
72686;Laerm;61365;52.162;4.500;2023-03-08T08:09:42;47.16;35.30;62.82;;
72686;Laerm;61365;52.162;4.500;2023-03-08T08:12:08;47.23;37.24;57.78;;
72686;Laerm;61365;52.162;4.500;2023-03-08T08:14:35;47.09;37.75;59.17;;
72686;Laerm;61365;52.162;4.500;2023-03-08T08:17:01;47.14;37.73;58.46;;
72686;Laerm;61365;52.162;4.500;2023-03-08T08:19:28;47.21;38.97;57.94;;
72686;Laerm;61365;52.162;4.500;2023-03-08T08:21:56;47.14;38.15;57.94;;
72686;Laerm;61365;52.162;4.500;2023-03-08T08:24:23;47.17;38.41;57.46;;
72686;Laerm;61365;52.162;4.500;2023-03-08T08:26:49;46.92;38.52;58.21;;
72686;Laerm;61365;52.162;4.500;2023-03-08T08:29:16;47.07;37.44;58.39;;
72686;Laerm;61365;52.162;4.500;2023-03-08T08:31:42;47.04;37.49;57.78;;
72686;Laerm;61365;52.162;4.500;2023-03-08T08:34:09;46.92;37.88;57.20;;
72686;Laerm;61365;52.162;4.500;2023-03-08T08:36:35;47.09;37.56;60.49;;
72686;Laerm;61365;52.162;4.500;2023-03-08T08:39:02;47.00;37.75;60.82;;
72686;Laerm;61365;52.162;4.500;2023-03-08T08:41:29;47.14;35.93;62.51;;
72686;Laerm;61365;52.162;4.500;2023-03-08T08:43:58;47.02;37.42;58.98;;
72686;Laerm;61365;52.162;4.500;2023-03-08T08:46:28;47.08;37.37;57.47;;
72686;Laerm;61365;52.162;4.500;2023-03-08T08:48:57;47.19;38.27;57.39;;
72686;Laerm;61365;52.162;4.500;2023-03-08T08:51:23;47.05;38.33;57.62;;
72686;Laerm;61365;52.162;4.500;2023-03-08T08:53:50;46.99;37.53;57.87;;
72686;Laerm;61365;52.162;4.500;2023-03-08T08:56:20;47.01;38.23;61.44;;
72686;Laerm;61365;52.162;4.500;2023-03-08T08:58:47;47.13;38.91;58.37;;
72686;Laerm;61365;52.162;4.500;2023-03-08T09:01:22;47.09;37.86;61.59;;
72686;Laerm;61365;52.162;4.500;2023-03-08T09:03:50;47.24;38.92;57.84;;
72686;Laerm;61365;52.162;4.500;2023-03-08T09:06:19;47.11;38.56;58.04;;
72686;Laerm;61365;52.162;4.500;2023-03-08T09:08:54;46.98;37.12;58.41;;
72686;Laerm;61365;52.162;4.500;2023-03-08T09:11:22;47.07;38.49;57.41;;
72686;Laerm;61365;52.162;4.500;2023-03-08T09:13:49;46.99;37.73;56.63;;
72686;Laerm;61365;52.162;4.500;2023-03-08T09:16:25;47.10;37.49;57.89;;
72686;Laerm;61365;52.162;4.500;2023-03-08T09:18:53;47.21;37.79;59.11;;
72686;Laerm;61365;52.162;4.500;2023-03-08T09:21:22;47.21;38.04;58.56;;
72686;Laerm;61365;52.162;4.500;2023-03-08T09:23:49;47.02;37.66;57.22;;
72686;Laerm;61365;52.162;4.500;2023-03-08T09:26:16;47.06;38.22;58.92;;
72686;Laerm;61365;52.162;4.500;2023-03-08T09:28:43;47.19;38.29;59.79;;
72686;Laerm;61365;52.162;4.500;2023-03-08T09:31:13;47.02;37.68;57.38;;
72686;Laerm;61365;52.162;4.500;2023-03-08T09:33:49;46.83;37.75;58.21;;
72686;Laerm;61365;52.162;4.500;2023-03-08T09:36:17;46.96;37.67;57.46;;
72686;Laerm;61365;52.162;4.500;2023-03-08T09:38:49;47.02;37.54;57.55;;
72686;Laerm;61365;52.162;4.500;2023-03-08T09:41:53;47.01;37.31;58.25;;
72686;Laerm;61365;52.162;4.500;2023-03-08T09:47:30;47.21;37.60;58.08;;
72686;Laerm;61365;52.162;4.500;2023-03-08T09:53:09;47.19;37.95;62.80;;
72686;Laerm;61365;52.162;4.500;2023-03-08T09:55:49;46.93;38.18;57.91;;
72686;Laerm;61365;52.162;4.500;2023-03-08T09:58:31;47.06;38.96;58.80;;
72686;Laerm;61365;52.162;4.500;2023-03-08T10:09:42;47.10;37.07;60.35;;
72686;Laerm;61365;52.162;4.500;2023-03-08T10:12:31;47.13;36.96;59.45;;
72686;Laerm;61365;52.162;4.500;2023-03-08T10:15:13;47.01;37.77;57.86;;
72686;Laerm;61365;52.162;4.500;2023-03-08T10:17:59;47.04;38.65;57.62;;
72686;Laerm;61365;52.162;4.500;2023-03-08T10:20:31;46.91;37.77;59.22;;
72686;Laerm;61365;52.162;4.500;2023-03-08T10:23:11;46.83;38.15;57.43;;
72686;Laerm;61365;52.162;4.500;2023-03-08T10:25:38;46.99;38.53;57.94;;
72686;Laerm;61365;52.162;4.500;2023-03-08T10:28:14;47.02;37.53;57.69;;
72686;Laerm;61365;52.162;4.500;2023-03-08T10:30:51;47.00;38.94;60.06;;
72686;Laerm;61365;52.162;4.500;2023-03-08T10:33:21;47.11;38.26;58.14;;
72686;Laerm;61365;52.162;4.500;2023-03-08T10:38:31;47.08;38.16;57.77;;
72686;Laerm;61365;52.162;4.500;2023-03-08T10:41:18;47.14;38.00;56.88;;
72686;Laerm;61365;52.162;4.500;2023-03-08T10:43:49;47.22;39.20;58.17;;
72686;Laerm;61365;52.162;4.500;2023-03-08T10:46:21;46.90;37.28;57.36;;
72686;Laerm;61365;52.162;4.500;2023-03-08T10:48:48;47.00;37.51;57.87;;
72686;Laerm;61365;52.162;4.500;2023-03-08T10:51:25;47.16;37.38;62.49;;
72686;Laerm;61365;52.162;4.500;2023-03-08T10:54:01;47.03;38.35;58.79;;
72686;Laerm;61365;52.162;4.500;2023-03-08T10:56:40;47.17;37.77;57.92;;
72686;Laerm;61365;52.162;4.500;2023-03-08T10:59:18;47.08;38.52;57.93;;
72686;Laerm;61365;52.162;4.500;2023-03-08T11:01:51;47.09;37.90;58.18;;
72686;Laerm;61365;52.162;4.500;2023-03-08T11:04:22;47.21;38.65;57.69;;
72686;Laerm;61365;52.162;4.500;2023-03-08T11:06:50;46.98;37.90;57.31;;
72686;Laerm;61365;52.162;4.500;2023-03-08T11:09:29;47.38;38.48;58.85;;
72686;Laerm;61365;52.162;4.500;2023-03-08T11:11:58;47.28;38.03;58.08;;
72686;Laerm;61365;52.162;4.500;2023-03-08T11:14:27;47.27;38.22;56.94;;
72686;Laerm;61365;52.162;4.500;2023-03-08T11:20:11;47.24;37.67;57.25;;
72686;Laerm;61365;52.162;4.500;2023-03-08T11:25:57;47.26;38.04;58.15;;
72686;Laerm;61365;52.162;4.500;2023-03-08T11:31:34;46.98;38.59;61.92;;
72686;Laerm;61365;52.162;4.500;2023-03-08T11:38:19;47.18;37.66;56.95;;
72686;Laerm;61365;52.162;4.500;2023-03-08T11:40:37;47.20;38.80;61.76;;
72686;Laerm;61365;52.162;4.500;2023-03-08T11:46:21;47.23;38.16;57.30;;
72686;Laerm;61365;52.162;4.500;2023-03-08T11:52:25;47.22;38.05;57.43;;
72686;Laerm;61365;52.162;4.500;2023-03-08T11:57:37;46.92;37.97;58.84;;
72686;Laerm;61365;52.162;4.500;2023-03-08T12:00:34;46.59;39.13;58.29;;
72686;Laerm;61365;52.162;4.500;2023-03-08T12:03:12;46.41;39.75;60.25;;
72686;Laerm;61365;52.162;4.500;2023-03-08T12:06:04;46.55;38.90;59.51;;
72686;Laerm;61365;52.162;4.500;2023-03-08T12:08:43;46.47;39.28;58.70;;
72686;Laerm;61365;52.162;4.500;2023-03-08T12:11:18;46.66;39.95;59.00;;
72686;Laerm;61365;52.162;4.500;2023-03-08T12:13:56;46.45;38.91;59.32;;
72686;Laerm;61365;52.162;4.500;2023-03-08T12:16:47;46.58;38.89;59.81;;
72686;Laerm;61365;52.162;4.500;2023-03-08T12:19:43;46.54;39.23;60.58;;
72686;Laerm;61365;52.162;4.500;2023-03-08T12:22:43;46.76;38.45;58.86;;
72686;Laerm;61365;52.162;4.500;2023-03-08T12:25:23;47.16;37.65;57.92;;
72686;Laerm;61365;52.162;4.500;2023-03-08T12:28:22;47.26;37.86;58.24;;
72686;Laerm;61365;52.162;4.500;2023-03-08T12:31:32;47.30;38.50;57.38;;
72686;Laerm;61365;52.162;4.500;2023-03-08T12:33:59;47.05;37.58;57.60;;
72686;Laerm;61365;52.162;4.500;2023-03-08T12:36:41;47.10;37.25;58.12;;
72686;Laerm;61365;52.162;4.500;2023-03-08T12:39:33;47.40;38.30;57.86;;
72686;Laerm;61365;52.162;4.500;2023-03-08T12:44:38;47.08;38.01;57.67;;
72686;Laerm;61365;52.162;4.500;2023-03-08T12:49:43;47.34;37.69;57.68;;
72686;Laerm;61365;52.162;4.500;2023-03-08T12:55:14;47.27;38.15;57.85;;
72686;Laerm;61365;52.162;4.500;2023-03-08T12:57:50;47.31;37.94;58.39;;
72686;Laerm;61365;52.162;4.500;2023-03-08T13:00:32;47.19;38.53;57.99;;
72686;Laerm;61365;52.162;4.500;2023-03-08T13:05:47;47.37;38.44;58.15;;
72686;Laerm;61365;52.162;4.500;2023-03-08T13:11:08;47.22;37.71;58.32;;
72686;Laerm;61365;52.162;4.500;2023-03-08T13:13:56;47.20;37.50;59.46;;
72686;Laerm;61365;52.162;4.500;2023-03-08T13:16:33;47.20;37.88;57.76;;
72686;Laerm;61365;52.162;4.500;2023-03-08T13:19:29;47.19;37.74;61.59;;
72686;Laerm;61365;52.162;4.500;2023-03-08T13:22:19;47.22;38.38;59.34;;
72686;Laerm;61365;52.162;4.500;2023-03-08T13:28:09;47.11;37.45;57.80;;
72686;Laerm;61365;52.162;4.500;2023-03-08T13:33:44;47.17;38.48;58.32;;
72686;Laerm;61365;52.162;4.500;2023-03-08T13:36:21;47.21;37.71;57.86;;
72686;Laerm;61365;52.162;4.500;2023-03-08T13:39:01;47.26;38.03;58.18;;
72686;Laerm;61365;52.162;4.500;2023-03-08T13:41:44;47.14;37.17;57.30;;
72686;Laerm;61365;52.162;4.500;2023-03-08T13:46:44;47.26;38.34;57.42;;
72686;Laerm;61365;52.162;4.500;2023-03-08T13:49:24;47.21;38.44;57.40;;
72686;Laerm;61365;52.162;4.500;2023-03-08T13:51:55;47.20;37.81;59.42;;
72686;Laerm;61365;52.162;4.500;2023-03-08T13:54:32;47.14;37.82;59.72;;
72686;Laerm;61365;52.162;4.500;2023-03-08T13:57:03;47.19;37.88;57.01;;
72686;Laerm;61365;52.162;4.500;2023-03-08T13:59:31;47.28;38.14;58.37;;
72686;Laerm;61365;52.162;4.500;2023-03-08T14:01:59;47.25;38.54;57.46;;
72686;Laerm;61365;52.162;4.500;2023-03-08T14:04:29;47.21;38.00;56.80;;
72686;Laerm;61365;52.162;4.500;2023-03-08T14:06:59;47.22;35.77;62.01;;
72686;Laerm;61365;52.162;4.500;2023-03-08T14:09:26;47.22;39.12;56.69;;
72686;Laerm;61365;52.162;4.500;2023-03-08T14:12:02;47.17;38.47;56.86;;
72686;Laerm;61365;52.162;4.500;2023-03-08T14:14:37;47.10;37.68;56.77;;
72686;Laerm;61365;52.162;4.500;2023-03-08T14:17:20;47.12;39.10;56.40;;
72686;Laerm;61365;52.162;4.500;2023-03-08T14:20:01;47.27;38.37;56.98;;
72686;Laerm;61365;52.162;4.500;2023-03-08T14:22:38;47.22;38.84;56.61;;
72686;Laerm;61365;52.162;4.500;2023-03-08T14:25:06;47.29;38.22;58.19;;
72686;Laerm;61365;52.162;4.500;2023-03-08T14:27:45;47.30;37.86;57.25;;
72686;Laerm;61365;52.162;4.500;2023-03-08T14:30:25;47.29;38.74;57.36;;
72686;Laerm;61365;52.162;4.500;2023-03-08T14:33:01;47.26;38.38;56.28;;
72686;Laerm;61365;52.162;4.500;2023-03-08T14:35:34;47.29;38.27;58.30;;
72686;Laerm;61365;52.162;4.500;2023-03-08T14:38:20;47.33;37.95;57.42;;
72686;Laerm;61365;52.162;4.500;2023-03-08T14:40:49;47.27;38.79;57.08;;
72686;Laerm;61365;52.162;4.500;2023-03-08T14:43:23;47.27;39.08;58.32;;
72686;Laerm;61365;52.162;4.500;2023-03-08T14:45:55;47.46;38.22;58.02;;
72686;Laerm;61365;52.162;4.500;2023-03-08T14:48:31;47.25;38.48;57.75;;
72686;Laerm;61365;52.162;4.500;2023-03-08T14:53:42;47.32;37.80;57.24;;
72686;Laerm;61365;52.162;4.500;2023-03-08T14:56:14;47.36;38.45;58.07;;
72686;Laerm;61365;52.162;4.500;2023-03-08T14:58:49;46.80;36.12;63.17;;
72686;Laerm;61365;52.162;4.500;2023-03-08T15:01:33;47.09;38.99;58.18;;
72686;Laerm;61365;52.162;4.500;2023-03-08T15:04:01;47.20;38.16;61.31;;
72686;Laerm;61365;52.162;4.500;2023-03-08T15:06:31;47.26;39.39;57.43;;
72686;Laerm;61365;52.162;4.500;2023-03-08T15:09:00;47.26;39.13;58.19;;
72686;Laerm;61365;52.162;4.500;2023-03-08T15:11:28;47.31;38.93;57.09;;
72686;Laerm;61365;52.162;4.500;2023-03-08T15:13:58;47.43;38.42;58.87;;
72686;Laerm;61365;52.162;4.500;2023-03-08T15:16:24;47.35;38.44;62.22;;